sensor_id;sensor_type;location;lat;lon;timestamp;pressure;altitude;pressure_sealevel;temperature;humidity
70304;BME280;57712;48.752;11.348;2024-03-29T00:02:01;96192.44;;;4.31;100.00
70304;BME280;57712;48.752;11.348;2024-03-29T00:04:27;96190.91;;;4.30;100.00
70304;BME280;57712;48.752;11.348;2024-03-29T00:06:52;96197.91;;;4.27;100.00
70304;BME280;57712;48.752;11.348;2024-03-29T00:09:19;96183.81;;;4.36;100.00
70304;BME280;57712;48.752;11.348;2024-03-29T00:11:45;96188.44;;;4.39;100.00
70304;BME280;57712;48.752;11.348;2024-03-29T00:14:11;96181.34;;;4.45;100.00
70304;BME280;57712;48.752;11.348;2024-03-29T00:16:36;96180.56;;;4.48;100.00
70304;BME280;57712;48.752;11.348;2024-03-29T00:19:02;96179.72;;;4.51;100.00
70304;BME280;57712;48.752;11.348;2024-03-29T00:21:27;96182.44;;;4.51;100.00
70304;BME280;57712;48.752;11.348;2024-03-29T00:23:53;96179.59;;;4.58;100.00
70304;BME280;57712;48.752;11.348;2024-03-29T00:26:19;96172.28;;;4.55;100.00
70304;BME280;57712;48.752;11.348;2024-03-29T00:28:44;96171.84;;;4.60;100.00
70304;BME280;57712;48.752;11.348;2024-03-29T00:31:10;96187.97;;;4.68;100.00
70304;BME280;57712;48.752;11.348;2024-03-29T00:33:36;96188.13;;;4.60;100.00
70304;BME280;57712;48.752;11.348;2024-03-29T00:36:02;96181.09;;;4.63;100.00
70304;BME280;57712;48.752;11.348;2024-03-29T00:38:28;96190.06;;;4.60;100.00
70304;BME280;57712;48.752;11.348;2024-03-29T00:40:53;96185.41;;;4.60;100.00
70304;BME280;57712;48.752;11.348;2024-03-29T00:43:19;96187.69;;;4.62;100.00
70304;BME280;57712;48.752;11.348;2024-03-29T00:45:47;96177.25;;;4.60;100.00
70304;BME280;57712;48.752;11.348;2024-03-29T00:48:13;96172.78;;;4.50;100.00
70304;BME280;57712;48.752;11.348;2024-03-29T00:50:41;96173.47;;;4.54;100.00
70304;BME280;57712;48.752;11.348;2024-03-29T00:53:06;96177.44;;;4.50;100.00
70304;BME280;57712;48.752;11.348;2024-03-29T00:55:32;96164.28;;;4.48;100.00
70304;BME280;57712;48.752;11.348;2024-03-29T00:57:58;96158.72;;;4.32;100.00
70304;BME280;57712;48.752;11.348;2024-03-29T01:00:23;96155.09;;;4.42;100.00
70304;BME280;57712;48.752;11.348;2024-03-29T01:02:49;96159.00;;;4.38;100.00
70304;BME280;57712;48.752;11.348;2024-03-29T01:05:15;96152.81;;;4.37;100.00
70304;BME280;57712;48.752;11.348;2024-03-29T01:07:41;96138.22;;;4.31;100.00
70304;BME280;57712;48.752;11.348;2024-03-29T01:10:08;96135.16;;;4.29;100.00
70304;BME280;57712;48.752;11.348;2024-03-29T01:12:35;96132.06;;;4.27;100.00
70304;BME280;57712;48.752;11.348;2024-03-29T01:15:01;96129.47;;;4.20;100.00
70304;BME280;57712;48.752;11.348;2024-03-29T01:17:28;96122.94;;;4.17;100.00
70304;BME280;57712;48.752;11.348;2024-03-29T01:19:54;96120.09;;;4.01;100.00
70304;BME280;57712;48.752;11.348;2024-03-29T01:22:20;96119.16;;;4.11;100.00
70304;BME280;57712;48.752;11.348;2024-03-29T01:24:46;96106.84;;;4.07;100.00
70304;BME280;57712;48.752;11.348;2024-03-29T01:27:11;96080.88;;;4.09;100.00
70304;BME280;57712;48.752;11.348;2024-03-29T01:29:37;96096.38;;;4.09;100.00
70304;BME280;57712;48.752;11.348;2024-03-29T01:32:03;96106.84;;;4.07;100.00
70304;BME280;57712;48.752;11.348;2024-03-29T01:34:29;96110.72;;;4.05;100.00
70304;BME280;57712;48.752;11.348;2024-03-29T01:36:55;96121.56;;;4.05;100.00
70304;BME280;57712;48.752;11.348;2024-03-29T01:39:21;96117.44;;;3.97;100.00
70304;BME280;57712;48.752;11.348;2024-03-29T01:41:52;96121.56;;;4.05;100.00
70304;BME280;57712;48.752;11.348;2024-03-29T01:44:18;96117.63;;;4.10;100.00
70304;BME280;57712;48.752;11.348;2024-03-29T01:46:44;96114.50;;;4.12;100.00
70304;BME280;57712;48.752;11.348;2024-03-29T01:49:11;96110.56;;;4.16;100.00
70304;BME280;57712;48.752;11.348;2024-03-29T01:51:37;96100.84;;;4.19;100.00
70304;BME280;57712;48.752;11.348;2024-03-29T01:54:06;96097.31;;;4.22;100.00
70304;BME280;57712;48.752;11.348;2024-03-29T01:56:32;96085.28;;;4.23;100.00
70304;BME280;57712;48.752;11.348;2024-03-29T01:58:59;96077.06;;;4.30;100.00
70304;BME280;57712;48.752;11.348;2024-03-29T02:01:26;96082.47;;;4.30;100.00
70304;BME280;57712;48.752;11.348;2024-03-29T02:03:55;96071.63;;;4.30;100.00
70304;BME280;57712;48.752;11.348;2024-03-29T02:06:22;96062.91;;;4.42;100.00
70304;BME280;57712;48.752;11.348;2024-03-29T02:08:49;96060.19;;;4.42;100.00
70304;BME280;57712;48.752;11.348;2024-03-29T02:11:17;96065.13;;;4.47;100.00
70304;BME280;57712;48.752;11.348;2024-03-29T02:13:42;96079.63;;;4.60;100.00
70304;BME280;57712;48.752;11.348;2024-03-29T02:16:09;96075.75;;;4.61;100.00
70304;BME280;57712;48.752;11.348;2024-03-29T02:18:35;96076.75;;;4.71;100.00
70304;BME280;57712;48.752;11.348;2024-03-29T02:21:01;96071.59;;;4.77;100.00
70304;BME280;57712;48.752;11.348;2024-03-29T02:23:27;96064.63;;;4.76;100.00
70304;BME280;57712;48.752;11.348;2024-03-29T02:25:57;96076.78;;;4.68;100.00
70304;BME280;57712;48.752;11.348;2024-03-29T02:28:23;96074.38;;;4.73;100.00
70304;BME280;57712;48.752;11.348;2024-03-29T02:30:50;96081.31;;;4.74;100.00
70304;BME280;57712;48.752;11.348;2024-03-29T02:33:15;96075.59;;;4.69;100.00
70304;BME280;57712;48.752;11.348;2024-03-29T02:35:41;96076.44;;;4.66;100.00
70304;BME280;57712;48.752;11.348;2024-03-29T02:38:07;96072.13;;;4.68;100.00
70304;BME280;57712;48.752;11.348;2024-03-29T02:40:33;96072.63;;;4.63;100.00
70304;BME280;57712;48.752;11.348;2024-03-29T02:42:58;96069.97;;;4.59;100.00
70304;BME280;57712;48.752;11.348;2024-03-29T02:45:24;96075.09;;;4.54;100.00
70304;BME280;57712;48.752;11.348;2024-03-29T02:47:50;96080.59;;;4.50;100.00
70304;BME280;57712;48.752;11.348;2024-03-29T02:50:16;96087.66;;;4.44;100.00
70304;BME280;57712;48.752;11.348;2024-03-29T02:52:42;96079.63;;;4.37;100.00
70304;BME280;57712;48.752;11.348;2024-03-29T02:55:08;96054.53;;;4.33;100.00
70304;BME280;57712;48.752;11.348;2024-03-29T02:57:37;96054.66;;;4.26;100.00
70304;BME280;57712;48.752;11.348;2024-03-29T03:00:07;96068.16;;;4.29;100.00
70304;BME280;57712;48.752;11.348;2024-03-29T03:02:37;96067.75;;;4.31;100.00
70304;BME280;57712;48.752;11.348;2024-03-29T03:05:03;96072.44;;;4.27;100.00
70304;BME280;57712;48.752;11.348;2024-03-29T03:07:29;96067.81;;;4.27;100.00
70304;BME280;57712;48.752;11.348;2024-03-29T03:10:13;96065.50;;;4.26;100.00
70304;BME280;57712;48.752;11.348;2024-03-29T03:12:57;96056.19;;;4.27;100.00
70304;BME280;57712;48.752;11.348;2024-03-29T03:15:24;96073.16;;;4.31;100.00
70304;BME280;57712;48.752;11.348;2024-03-29T03:17:50;96080.88;;;4.32;100.00
70304;BME280;57712;48.752;11.348;2024-03-29T03:20:15;96081.81;;;4.22;100.00
70304;BME280;57712;48.752;11.348;2024-03-29T03:22:42;96090.66;;;4.26;100.00
70304;BME280;57712;48.752;11.348;2024-03-29T03:25:07;96092.59;;;4.26;100.00
70304;BME280;57712;48.752;11.348;2024-03-29T03:27:33;96084.84;;;4.28;100.00
70304;BME280;57712;48.752;11.348;2024-03-29T03:29:59;96063.19;;;4.24;100.00
70304;BME280;57712;48.752;11.348;2024-03-29T03:32:24;96065.50;;;4.26;100.00
70304;BME280;57712;48.752;11.348;2024-03-29T03:34:50;96056.59;;;4.25;100.00
70304;BME280;57712;48.752;11.348;2024-03-29T03:37:16;96051.47;;;4.08;100.00
70304;BME280;57712;48.752;11.348;2024-03-29T03:39:43;96049.38;;;4.19;100.00
70304;BME280;57712;48.752;11.348;2024-03-29T03:42:08;96055.56;;;4.19;100.00
70304;BME280;57712;48.752;11.348;2024-03-29T03:44:34;96049.47;;;4.12;100.00
70304;BME280;57712;48.752;11.348;2024-03-29T03:46:59;96059.03;;;4.20;100.00
70304;BME280;57712;48.752;11.348;2024-03-29T03:49:25;96070.31;;;4.15;100.00
70304;BME280;57712;48.752;11.348;2024-03-29T03:51:50;96058.88;;;4.03;100.00
70304;BME280;57712;48.752;11.348;2024-03-29T03:54:16;96053.38;;;4.11;100.00
70304;BME280;57712;48.752;11.348;2024-03-29T03:56:41;96067.25;;;4.13;100.00
70304;BME280;57712;48.752;11.348;2024-03-29T03:59:07;96072.78;;;4.05;100.00
70304;BME280;57712;48.752;11.348;2024-03-29T04:01:34;96065.47;;;4.02;100.00
70304;BME280;57712;48.752;11.348;2024-03-29T04:04:00;96064.78;;;3.98;100.00
70304;BME280;57712;48.752;11.348;2024-03-29T04:06:26;96062.94;;;3.92;100.00
70304;BME280;57712;48.752;11.348;2024-03-29T04:08:52;96046.75;;;3.88;100.00
70304;BME280;57712;48.752;11.348;2024-03-29T04:11:17;96036.50;;;3.76;100.00
70304;BME280;57712;48.752;11.348;2024-03-29T04:13:45;96043.84;;;3.75;100.00
70304;BME280;57712;48.752;11.348;2024-03-29T04:16:11;96038.94;;;3.67;100.00
70304;BME280;57712;48.752;11.348;2024-03-29T04:18:37;96040.91;;;3.63;100.00
70304;BME280;57712;48.752;11.348;2024-03-29T04:21:03;96037.75;;;3.68;100.00
70304;BME280;57712;48.752;11.348;2024-03-29T04:23:30;96030.34;;;3.72;100.00
70304;BME280;57712;48.752;11.348;2024-03-29T04:25:57;96033.03;;;3.75;100.00
70304;BME280;57712;48.752;11.348;2024-03-29T04:28:23;96030.34;;;3.72;100.00
70304;BME280;57712;48.752;11.348;2024-03-29T04:30:55;96025.69;;;3.72;100.00
70304;BME280;57712;48.752;11.348;2024-03-29T04:33:21;96012.22;;;3.69;100.00
70304;BME280;57712;48.752;11.348;2024-03-29T04:35:54;96016.88;;;3.68;100.00
70304;BME280;57712;48.752;11.348;2024-03-29T04:38:20;96020.63;;;3.74;100.00
70304;BME280;57712;48.752;11.348;2024-03-29T04:40:47;96017.56;;;3.72;100.00
70304;BME280;57712;48.752;11.348;2024-03-29T04:43:13;96019.88;;;3.74;100.00
70304;BME280;57712;48.752;11.348;2024-03-29T04:45:39;96022.94;;;3.76;100.00
70304;BME280;57712;48.752;11.348;2024-03-29T04:48:05;96033.41;;;3.74;100.00
70304;BME280;57712;48.752;11.348;2024-03-29T04:50:30;96042.97;;;3.82;100.00
70304;BME280;57712;48.752;11.348;2024-03-29T04:52:56;96055.69;;;3.85;100.00
70304;BME280;57712;48.752;11.348;2024-03-29T04:55:21;96036.72;;;3.85;100.00
70304;BME280;57712;48.752;11.348;2024-03-29T04:57:47;96028.03;;;3.97;100.00
70304;BME280;57712;48.752;11.348;2024-03-29T05:00:13;96020.38;;;3.92;100.00
70304;BME280;57712;48.752;11.348;2024-03-29T05:02:38;96016.25;;;4.08;100.00
70304;BME280;57712;48.752;11.348;2024-03-29T05:05:04;96026.16;;;4.18;100.00
70304;BME280;57712;48.752;11.348;2024-03-29T05:07:30;96031.50;;;4.21;100.00
70304;BME280;57712;48.752;11.348;2024-03-29T05:09:56;96043.25;;;4.38;100.00
70304;BME280;57712;48.752;11.348;2024-03-29T05:12:21;96035.69;;;4.49;100.00
70304;BME280;57712;48.752;11.348;2024-03-29T05:14:47;96051.81;;;4.56;100.00
70304;BME280;57712;48.752;11.348;2024-03-29T05:17:15;96048.13;;;4.67;100.00
70304;BME280;57712;48.752;11.348;2024-03-29T05:19:40;96047.66;;;4.72;100.00
70304;BME280;57712;48.752;11.348;2024-03-29T05:22:06;96039.88;;;4.74;100.00
70304;BME280;57712;48.752;11.348;2024-03-29T05:24:32;96047.59;;;4.75;100.00
70304;BME280;57712;48.752;11.348;2024-03-29T05:26:57;96027.97;;;4.87;100.00
70304;BME280;57712;48.752;11.348;2024-03-29T05:29:23;96027.41;;;4.76;100.00
70304;BME280;57712;48.752;11.348;2024-03-29T05:31:48;96019.41;;;4.89;100.00
70304;BME280;57712;48.752;11.348;2024-03-29T05:34:14;96016.31;;;4.90;100.00
70304;BME280;57712;48.752;11.348;2024-03-29T05:36:40;96017.75;;;4.95;100.00
70304;BME280;57712;48.752;11.348;2024-03-29T05:39:06;96010.25;;;5.03;100.00
70304;BME280;57712;48.752;11.348;2024-03-29T05:41:32;96015.88;;;5.12;100.00
70304;BME280;57712;48.752;11.348;2024-03-29T05:43:58;96001.19;;;5.09;100.00
70304;BME280;57712;48.752;11.348;2024-03-29T05:46:23;96006.34;;;5.24;100.00
70304;BME280;57712;48.752;11.348;2024-03-29T05:48:49;96008.19;;;5.27;100.00
70304;BME280;57712;48.752;11.348;2024-03-29T05:51:14;96014.06;;;5.25;100.00
70304;BME280;57712;48.752;11.348;2024-03-29T05:53:44;96016.69;;;5.29;100.00
70304;BME280;57712;48.752;11.348;2024-03-29T05:56:09;96025.44;;;5.36;100.00
70304;BME280;57712;48.752;11.348;2024-03-29T05:58:35;96032.50;;;5.34;100.00
70304;BME280;57712;48.752;11.348;2024-03-29T06:01:00;96030.31;;;5.61;100.00
70304;BME280;57712;48.752;11.348;2024-03-29T06:03:27;96024.94;;;5.77;100.00
70304;BME280;57712;48.752;11.348;2024-03-29T06:05:54;96036.84;;;5.84;100.00
70304;BME280;57712;48.752;11.348;2024-03-29T06:08:19;96053.06;;;6.03;100.00
70304;BME280;57712;48.752;11.348;2024-03-29T06:10:46;96055.47;;;6.18;100.00
70304;BME280;57712;48.752;11.348;2024-03-29T06:13:12;96059.78;;;6.31;100.00
70304;BME280;57712;48.752;11.348;2024-03-29T06:15:55;96069.63;;;6.58;100.00
70304;BME280;57712;48.752;11.348;2024-03-29T06:18:39;96077.09;;;6.70;100.00
70304;BME280;57712;48.752;11.348;2024-03-29T06:21:05;96071.81;;;6.79;100.00
70304;BME280;57712;48.752;11.348;2024-03-29T06:23:30;96077.41;;;6.88;100.00
70304;BME280;57712;48.752;11.348;2024-03-29T06:25:56;96067.47;;;6.82;100.00
70304;BME280;57712;48.752;11.348;2024-03-29T06:28:21;96057.84;;;6.77;100.00
70304;BME280;57712;48.752;11.348;2024-03-29T06:30:47;96063.09;;;6.84;100.00
70304;BME280;57712;48.752;11.348;2024-03-29T06:33:12;96056.53;;;6.69;100.00
70304;BME280;57712;48.752;11.348;2024-03-29T06:35:38;96051.63;;;6.77;100.00
70304;BME280;57712;48.752;11.348;2024-03-29T06:38:04;96043.06;;;6.78;100.00
70304;BME280;57712;48.752;11.348;2024-03-29T06:40:29;96031.41;;;6.78;100.00
70304;BME280;57712;48.752;11.348;2024-03-29T06:42:55;96045.63;;;6.69;100.00
70304;BME280;57712;48.752;11.348;2024-03-29T06:45:23;96033.56;;;6.54;100.00
70304;BME280;57712;48.752;11.348;2024-03-29T06:47:49;96032.16;;;6.49;100.00
70304;BME280;57712;48.752;11.348;2024-03-29T06:50:14;96039.88;;;6.67;100.00
70304;BME280;57712;48.752;11.348;2024-03-29T06:52:40;96035.56;;;6.82;100.00
70304;BME280;57712;48.752;11.348;2024-03-29T06:55:05;96023.16;;;6.81;100.00
70304;BME280;57712;48.752;11.348;2024-03-29T06:57:31;96021.09;;;6.85;100.00
70304;BME280;57712;48.752;11.348;2024-03-29T06:59:57;96026.53;;;6.85;100.00
70304;BME280;57712;48.752;11.348;2024-03-29T07:02:23;96039.94;;;6.92;100.00
70304;BME280;57712;48.752;11.348;2024-03-29T07:04:49;96037.59;;;7.07;100.00
70304;BME280;57712;48.752;11.348;2024-03-29T07:07:15;96043.34;;;6.97;100.00
70304;BME280;57712;48.752;11.348;2024-03-29T07:09:41;96033.78;;;7.05;100.00
70304;BME280;57712;48.752;11.348;2024-03-29T07:12:06;96045.41;;;7.34;100.00
70304;BME280;57712;48.752;11.348;2024-03-29T07:14:32;96043.47;;;7.47;100.00
70304;BME280;57712;48.752;11.348;2024-03-29T07:16:59;96040.09;;;7.69;100.00
70304;BME280;57712;48.752;11.348;2024-03-29T07:19:24;96058.22;;;7.75;100.00
70304;BME280;57712;48.752;11.348;2024-03-29T07:21:50;96063.53;;;7.79;100.00
70304;BME280;57712;48.752;11.348;2024-03-29T07:24:19;96053.28;;;7.58;100.00
70304;BME280;57712;48.752;11.348;2024-03-29T07:26:44;96039.69;;;7.83;100.00
70304;BME280;57712;48.752;11.348;2024-03-29T07:29:10;96052.88;;;7.72;100.00
70304;BME280;57712;48.752;11.348;2024-03-29T07:31:36;96057.25;;;7.82;100.00
70304;BME280;57712;48.752;11.348;2024-03-29T07:34:02;96064.97;;;7.96;100.00
70304;BME280;57712;48.752;11.348;2024-03-29T07:36:27;96058.81;;;8.30;100.00
70304;BME280;57712;48.752;11.348;2024-03-29T07:39:00;96069.22;;;8.48;100.00
70304;BME280;57712;48.752;11.348;2024-03-29T07:41:28;96061.78;;;8.49;100.00
70304;BME280;57712;48.752;11.348;2024-03-29T07:43:55;96047.91;;;8.30;100.00
70304;BME280;57712;48.752;11.348;2024-03-29T07:46:36;96043.44;;;8.49;100.00
70304;BME280;57712;48.752;11.348;2024-03-29T07:49:02;96051.94;;;8.51;100.00
70304;BME280;57712;48.752;11.348;2024-03-29T07:51:29;96056.91;;;9.00;100.00
70304;BME280;57712;48.752;11.348;2024-03-29T07:53:54;96055.88;;;8.85;100.00
70304;BME280;57712;48.752;11.348;2024-03-29T07:56:20;96054.06;;;9.25;100.00
70304;BME280;57712;48.752;11.348;2024-03-29T07:58:50;96069.38;;;9.76;100.00
70304;BME280;57712;48.752;11.348;2024-03-29T08:01:21;96057.06;;;9.71;100.00
70304;BME280;57712;48.752;11.348;2024-03-29T08:03:47;96047.66;;;9.72;100.00
70304;BME280;57712;48.752;11.348;2024-03-29T08:06:12;96047.38;;;9.79;100.00
70304;BME280;57712;48.752;11.348;2024-03-29T08:08:38;96057.94;;;9.68;100.00
70304;BME280;57712;48.752;11.348;2024-03-29T08:11:03;96058.19;;;9.30;100.00
70304;BME280;57712;48.752;11.348;2024-03-29T08:13:29;96062.75;;;9.86;100.00
70304;BME280;57712;48.752;11.348;2024-03-29T08:15:59;96066.22;;;10.18;100.00
70304;BME280;57712;48.752;11.348;2024-03-29T08:18:26;96074.28;;;10.70;100.00
70304;BME280;57712;48.752;11.348;2024-03-29T08:20:52;96085.69;;;10.69;100.00
70304;BME280;57712;48.752;11.348;2024-03-29T08:23:22;96081.47;;;10.86;100.00
70304;BME280;57712;48.752;11.348;2024-03-29T08:25:49;96075.34;;;10.73;100.00
70304;BME280;57712;48.752;11.348;2024-03-29T08:28:20;96085.09;;;10.92;100.00
70304;BME280;57712;48.752;11.348;2024-03-29T08:30:46;96086.91;;;10.68;100.00
70304;BME280;57712;48.752;11.348;2024-03-29T08:33:11;96090.28;;;10.99;100.00
70304;BME280;57712;48.752;11.348;2024-03-29T08:35:38;96093.66;;;10.94;100.00
70304;BME280;57712;48.752;11.348;2024-03-29T08:38:08;96084.19;;;10.77;100.00
70304;BME280;57712;48.752;11.348;2024-03-29T08:40:34;96076.56;;;10.81;100.00
70304;BME280;57712;48.752;11.348;2024-03-29T08:43:02;96089.81;;;10.92;100.00
70304;BME280;57712;48.752;11.348;2024-03-29T08:45:29;96093.63;;;11.31;100.00
70304;BME280;57712;48.752;11.348;2024-03-29T08:47:55;96103.41;;;11.05;100.00
70304;BME280;57712;48.752;11.348;2024-03-29T08:50:21;96100.34;;;11.48;100.00
70304;BME280;57712;48.752;11.348;2024-03-29T08:52:46;96095.84;;;11.88;100.00
70304;BME280;57712;48.752;11.348;2024-03-29T08:55:12;96093.34;;;11.29;100.00
70304;BME280;57712;48.752;11.348;2024-03-29T08:57:37;96102.78;;;11.37;100.00
70304;BME280;57712;48.752;11.348;2024-03-29T09:00:04;96115.44;;;11.16;100.00
70304;BME280;57712;48.752;11.348;2024-03-29T09:02:30;96109.16;;;11.25;100.00
70304;BME280;57712;48.752;11.348;2024-03-29T09:04:55;96091.66;;;11.13;100.00
70304;BME280;57712;48.752;11.348;2024-03-29T09:07:21;96100.34;;;11.39;100.00
70304;BME280;57712;48.752;11.348;2024-03-29T09:09:49;96092.13;;;11.39;100.00
70304;BME280;57712;48.752;11.348;2024-03-29T09:12:15;96087.78;;;11.93;100.00
70304;BME280;57712;48.752;11.348;2024-03-29T09:14:40;96084.13;;;11.87;100.00
70304;BME280;57712;48.752;11.348;2024-03-29T09:17:06;96086.88;;;11.78;100.00
70304;BME280;57712;48.752;11.348;2024-03-29T09:19:32;96080.50;;;11.81;100.00
70304;BME280;57712;48.752;11.348;2024-03-29T09:21:58;96075.28;;;11.74;100.00
70304;BME280;57712;48.752;11.348;2024-03-29T09:24:23;96075.97;;;11.50;100.00
70304;BME280;57712;48.752;11.348;2024-03-29T09:26:51;96083.22;;;11.90;100.00
70304;BME280;57712;48.752;11.348;2024-03-29T09:29:17;96074.53;;;11.64;100.00
70304;BME280;57712;48.752;11.348;2024-03-29T09:31:45;96074.53;;;11.73;100.00
70304;BME280;57712;48.752;11.348;2024-03-29T09:34:12;96072.28;;;11.53;100.00
70304;BME280;57712;48.752;11.348;2024-03-29T09:36:38;96069.69;;;11.59;100.00
70304;BME280;57712;48.752;11.348;2024-03-29T09:39:04;96061.00;;;11.61;100.00
70304;BME280;57712;48.752;11.348;2024-03-29T09:41:30;96046.06;;;11.80;100.00
70304;BME280;57712;48.752;11.348;2024-03-29T09:43:59;96070.41;;;11.78;100.00
70304;BME280;57712;48.752;11.348;2024-03-29T09:46:28;96077.16;;;11.68;100.00
70304;BME280;57712;48.752;11.348;2024-03-29T09:48:55;96068.88;;;11.77;100.00
70304;BME280;57712;48.752;11.348;2024-03-29T09:51:21;96065.25;;;11.62;100.00
70304;BME280;57712;48.752;11.348;2024-03-29T09:53:47;96049.13;;;11.45;100.00
70304;BME280;57712;48.752;11.348;2024-03-29T09:56:13;96049.94;;;11.97;100.00
70304;BME280;57712;48.752;11.348;2024-03-29T09:58:39;96039.00;;;11.88;100.00
70304;BME280;57712;48.752;11.348;2024-03-29T10:01:07;96039.78;;;11.89;100.00
70304;BME280;57712;48.752;11.348;2024-03-29T10:03:39;96029.16;;;12.05;100.00
70304;BME280;57712;48.752;11.348;2024-03-29T10:06:05;96042.72;;;12.42;100.00
70304;BME280;57712;48.752;11.348;2024-03-29T10:08:34;96050.63;;;12.73;100.00
70304;BME280;57712;48.752;11.348;2024-03-29T10:11:01;96049.72;;;13.29;100.00
70304;BME280;57712;48.752;11.348;2024-03-29T10:13:27;96083.13;;;13.52;100.00
70304;BME280;57712;48.752;11.348;2024-03-29T10:15:54;96097.16;;;13.39;100.00
70304;BME280;57712;48.752;11.348;2024-03-29T10:18:24;96111.06;;;13.74;100.00
70304;BME280;57712;48.752;11.348;2024-03-29T10:21:00;96102.78;;;13.45;99.89
70304;BME280;57712;48.752;11.348;2024-03-29T10:23:27;96103.25;;;14.32;100.00
70304;BME280;57712;48.752;11.348;2024-03-29T10:25:53;96097.69;;;13.97;99.79
70304;BME280;57712;48.752;11.348;2024-03-29T10:28:19;96086.19;;;14.63;100.00
70304;BME280;57712;48.752;11.348;2024-03-29T10:30:45;96083.50;;;15.09;96.73
70304;BME280;57712;48.752;11.348;2024-03-29T10:33:12;96082.00;;;15.08;95.49
70304;BME280;57712;48.752;11.348;2024-03-29T10:35:38;96078.16;;;15.46;88.58
70304;BME280;57712;48.752;11.348;2024-03-29T10:38:06;96066.75;;;15.33;88.76
70304;BME280;57712;48.752;11.348;2024-03-29T10:40:32;96073.72;;;16.06;90.16
70304;BME280;57712;48.752;11.348;2024-03-29T10:42:59;96074.22;;;15.53;86.63
70304;BME280;57712;48.752;11.348;2024-03-29T10:45:29;96079.69;;;15.73;81.56
70304;BME280;57712;48.752;11.348;2024-03-29T10:47:56;96082.38;;;16.20;79.03
70304;BME280;57712;48.752;11.348;2024-03-29T10:50:22;96071.22;;;15.77;80.85
70304;BME280;57712;48.752;11.348;2024-03-29T10:52:48;96086.94;;;15.65;83.47
70304;BME280;57712;48.752;11.348;2024-03-29T10:55:15;96097.50;;;15.72;79.91
70304;BME280;57712;48.752;11.348;2024-03-29T10:57:41;96099.16;;;16.85;76.93
70304;BME280;57712;48.752;11.348;2024-03-29T11:00:11;96108.94;;;16.80;73.04
70304;BME280;57712;48.752;11.348;2024-03-29T11:05:16;96089.63;;;17.68;74.21
70304;BME280;57712;48.752;11.348;2024-03-29T11:07:43;96094.97;;;17.06;69.79
70304;BME280;57712;48.752;11.348;2024-03-29T11:10:57;96083.19;;;17.11;71.72
70304;BME280;57712;48.752;11.348;2024-03-29T11:13:19;96081.53;;;17.47;75.48
70304;BME280;57712;48.752;11.348;2024-03-29T11:15:47;96076.97;;;17.39;73.11
70304;BME280;57712;48.752;11.348;2024-03-29T11:18:15;96063.50;;;16.98;74.28
70304;BME280;57712;48.752;11.348;2024-03-29T11:20:46;96048.78;;;16.69;73.97
70304;BME280;57712;48.752;11.348;2024-03-29T11:23:18;96044.56;;;16.37;73.13
70304;BME280;57712;48.752;11.348;2024-03-29T11:25:52;96033.16;;;16.66;76.64
70304;BME280;57712;48.752;11.348;2024-03-29T11:28:27;96029.25;;;16.04;79.15
70304;BME280;57712;48.752;11.348;2024-03-29T11:31:02;96029.06;;;16.56;85.14
70304;BME280;57712;48.752;11.348;2024-03-29T11:36:23;96025.22;;;17.89;73.45
70304;BME280;57712;48.752;11.348;2024-03-29T11:38:56;96029.47;;;18.13;76.23
70304;BME280;57712;48.752;11.348;2024-03-29T11:41:26;96012.88;;;17.74;76.11
70304;BME280;57712;48.752;11.348;2024-03-29T11:43:56;96016.91;;;17.78;74.68
70304;BME280;57712;48.752;11.348;2024-03-29T11:46:23;96015.09;;;17.53;72.96
70304;BME280;57712;48.752;11.348;2024-03-29T11:48:49;95990.13;;;17.19;77.35
70304;BME280;57712;48.752;11.348;2024-03-29T11:51:18;95996.69;;;17.27;72.41
70304;BME280;57712;48.752;11.348;2024-03-29T11:53:46;95997.22;;;17.31;72.05
70304;BME280;57712;48.752;11.348;2024-03-29T11:56:11;96000.47;;;17.36;74.12
70304;BME280;57712;48.752;11.348;2024-03-29T11:58:39;95988.91;;;17.31;77.90
70304;BME280;57712;48.752;11.348;2024-03-29T12:01:05;95976.81;;;17.23;77.66
70304;BME280;57712;48.752;11.348;2024-03-29T12:03:31;95977.91;;;16.78;81.55
70304;BME280;57712;48.752;11.348;2024-03-29T12:05:59;95950.25;;;16.78;81.59
70304;BME280;57712;48.752;11.348;2024-03-29T12:08:33;95952.59;;;17.01;82.75
70304;BME280;57712;48.752;11.348;2024-03-29T12:10:59;95973.56;;;17.53;81.29
70304;BME280;57712;48.752;11.348;2024-03-29T12:13:26;95952.41;;;17.33;84.28
70304;BME280;57712;48.752;11.348;2024-03-29T12:15:52;95945.72;;;16.74;81.67
70304;BME280;57712;48.752;11.348;2024-03-29T12:18:22;95936.06;;;17.46;78.00
70304;BME280;57712;48.752;11.348;2024-03-29T12:20:49;95922.97;;;17.64;80.89
70304;BME280;57712;48.752;11.348;2024-03-29T12:23:17;95908.81;;;18.17;80.15
70304;BME280;57712;48.752;11.348;2024-03-29T12:25:43;95921.97;;;17.44;82.50
70304;BME280;57712;48.752;11.348;2024-03-29T12:28:10;95928.25;;;17.22;78.01
70304;BME280;57712;48.752;11.348;2024-03-29T12:30:37;95914.63;;;17.19;84.12
70304;BME280;57712;48.752;11.348;2024-03-29T12:33:11;95917.78;;;16.67;84.69
70304;BME280;57712;48.752;11.348;2024-03-29T12:35:41;95917.13;;;16.89;86.36
70304;BME280;57712;48.752;11.348;2024-03-29T12:38:07;95918.63;;;16.95;89.69
70304;BME280;57712;48.752;11.348;2024-03-29T12:40:33;95913.66;;;17.39;93.18
70304;BME280;57712;48.752;11.348;2024-03-29T12:43:05;95906.38;;;17.30;87.78
70304;BME280;57712;48.752;11.348;2024-03-29T12:45:31;95894.53;;;17.52;86.34
70304;BME280;57712;48.752;11.348;2024-03-29T12:47:57;95897.78;;;17.28;86.34
70304;BME280;57712;48.752;11.348;2024-03-29T12:50:27;95892.28;;;17.45;85.99
70304;BME280;57712;48.752;11.348;2024-03-29T12:52:54;95888.22;;;17.29;88.03